PBD102 USTR-UWWW
Flight info
| Callsign | PBD102 |
|---|---|
| Flight time | 1h 37m |
| Altitude | 38000 |
| Route | BEPAR T448 BANAM T348 EKB T764 EKRIM T759 NALUS |
| Aircraft | B738/M-SFSDFSD/L |
Departure
| Time | 2026-04-28 06:23 |
|---|---|
| Airport | Roshchino International Airport (USTR) |
Arrival
| Time | 2026-04-28 08:00 |
|---|---|
| Airport | Kurumoch International Airport (UWWW) |
| Time | Latitude | Longitude | Altitude | Speed | Heading |
|---|---|---|---|---|---|
| 2026-04-28 06:14 | 57.18046 | 65.34658 | 334 ft | 0 kts | 133° |
| 2026-04-28 06:18 | 57.18046 | 65.34665 | 334 ft | 3 kts | 97° |
| 2026-04-28 06:19 | 57.18074 | 65.34634 | 338 ft | 10 kts | 294° |
| 2026-04-28 06:19 | 57.18130 | 65.34502 | 338 ft | 16 kts | 315° |
| 2026-04-28 06:19 | 57.18220 | 65.34335 | 336 ft | 12 kts | 315° |
| 2026-04-28 06:19 | 57.18297 | 65.34194 | 337 ft | 19 kts | 315° |
| 2026-04-28 06:20 | 57.18405 | 65.33996 | 335 ft | 25 kts | 315° |
| 2026-04-28 06:20 | 57.18529 | 65.33767 | 339 ft | 15 kts | 315° |
| 2026-04-28 06:20 | 57.18619 | 65.33598 | 338 ft | 21 kts | 313° |
| 2026-04-28 06:20 | 57.18728 | 65.33392 | 338 ft | 20 kts | 315° |
| 2026-04-28 06:21 | 57.18843 | 65.33180 | 338 ft | 26 kts | 315° |
| 2026-04-28 06:21 | 57.18977 | 65.32920 | 335 ft | 16 kts | 316° |
| 2026-04-28 06:21 | 57.19047 | 65.32802 | 339 ft | 17 kts | 317° |
| 2026-04-28 06:21 | 57.19092 | 65.32713 | 339 ft | 4 kts | 310° |
| 2026-04-28 06:22 | 57.19102 | 65.32629 | 335 ft | 10 kts | 238° |
| 2026-04-28 06:22 | 57.19039 | 65.32515 | 338 ft | 16 kts | 224° |
| 2026-04-28 06:22 | 57.18927 | 65.32477 | 333 ft | 22 kts | 139° |
| 2026-04-28 06:22 | 57.18748 | 65.32807 | 331 ft | 67 kts | 135° |
| 2026-04-28 06:23 | 57.18231 | 65.33764 | 337 ft | 141 kts | 135° |
| 2026-04-28 06:23 | 57.17392 | 65.35203 | 567 ft | 182 kts | 140° |
| 2026-04-28 06:23 | 57.16401 | 65.36756 | 1413 ft | 191 kts | 154° |
| 2026-04-28 06:23 | 57.15153 | 65.37714 | 2062 ft | 208 kts | 171° |
| 2026-04-28 06:24 | 57.13633 | 65.37652 | 2685 ft | 225 kts | 198° |
| 2026-04-28 06:24 | 57.12274 | 65.36170 | 3608 ft | 238 kts | 222° |
| 2026-04-28 06:24 | 57.11337 | 65.33574 | 4438 ft | 252 kts | 243° |
| 2026-04-28 06:24 | 57.10979 | 65.30332 | 5345 ft | 270 kts | 264° |
| 2026-04-28 06:25 | 57.11309 | 65.26813 | 6189 ft | 282 kts | 277° |
| 2026-04-28 06:25 | 57.11796 | 65.23355 | 7329 ft | 278 kts | 279° |
| 2026-04-28 06:25 | 57.12271 | 65.19946 | 8374 ft | 272 kts | 277° |
| 2026-04-28 06:25 | 57.12652 | 65.16515 | 9196 ft | 272 kts | 274° |
| 2026-04-28 06:26 | 57.12937 | 65.13079 | 10020 ft | 272 kts | 271° |
| 2026-04-28 06:26 | 57.13155 | 65.09585 | 10542 ft | 281 kts | 270° |
| 2026-04-28 06:26 | 57.13330 | 65.05851 | 10702 ft | 304 kts | 269° |
| 2026-04-28 06:26 | 57.13478 | 65.01840 | 10877 ft | 325 kts | 269° |
| 2026-04-28 06:27 | 57.13606 | 64.97683 | 11085 ft | 342 kts | 268° |
| 2026-04-28 06:27 | 57.13727 | 64.93255 | 11611 ft | 350 kts | 268° |
| 2026-04-28 06:27 | 57.13838 | 64.88767 | 12310 ft | 352 kts | 268° |
| 2026-04-28 06:27 | 57.13942 | 64.84241 | 12997 ft | 356 kts | 268° |
| 2026-04-28 06:28 | 57.14042 | 64.79661 | 13634 ft | 360 kts | 267° |
| 2026-04-28 06:28 | 57.14136 | 64.75097 | 14240 ft | 364 kts | 267° |
| 2026-04-28 06:28 | 57.14230 | 64.70428 | 14869 ft | 365 kts | 267° |
| 2026-04-28 06:28 | 57.14324 | 64.65741 | 15506 ft | 367 kts | 267° |
| 2026-04-28 06:29 | 57.14416 | 64.61029 | 16126 ft | 370 kts | 267° |
| 2026-04-28 06:29 | 57.14506 | 64.56278 | 16723 ft | 372 kts | 267° |
| 2026-04-28 06:29 | 57.14594 | 64.51493 | 17335 ft | 375 kts | 267° |
| 2026-04-28 06:29 | 57.14635 | 64.46680 | 17936 ft | 376 kts | 264° |
| 2026-04-28 06:30 | 57.14521 | 64.41870 | 18508 ft | 377 kts | 262° |
| 2026-04-28 06:30 | 57.14348 | 64.37041 | 19033 ft | 378 kts | 261° |
| 2026-04-28 06:30 | 57.14163 | 64.32201 | 19573 ft | 380 kts | 261° |
| 2026-04-28 06:30 | 57.13984 | 64.27345 | 20137 ft | 381 kts | 261° |
| 2026-04-28 06:31 | 57.13811 | 64.22472 | 20677 ft | 382 kts | 261° |
| 2026-04-28 06:31 | 57.13643 | 64.17579 | 21199 ft | 384 kts | 261° |
| 2026-04-28 06:31 | 57.13479 | 64.12660 | 21705 ft | 386 kts | 261° |
| 2026-04-28 06:31 | 57.13315 | 64.07723 | 22189 ft | 387 kts | 261° |
| 2026-04-28 06:32 | 57.13148 | 64.02767 | 22683 ft | 389 kts | 261° |
| 2026-04-28 06:32 | 57.12984 | 63.97920 | 23148 ft | 390 kts | 261° |
| 2026-04-28 06:32 | 57.12812 | 63.92914 | 23609 ft | 392 kts | 261° |
| 2026-04-28 06:32 | 57.12639 | 63.87892 | 23987 ft | 394 kts | 261° |
| 2026-04-28 06:33 | 57.12461 | 63.82843 | 24331 ft | 396 kts | 261° |
| 2026-04-28 06:33 | 57.12278 | 63.77774 | 24710 ft | 398 kts | 261° |
| 2026-04-28 06:33 | 57.11979 | 63.72785 | 25075 ft | 396 kts | 255° |
| 2026-04-28 06:33 | 57.11432 | 63.67816 | 25448 ft | 397 kts | 252° |
| 2026-04-28 06:34 | 57.10831 | 63.62846 | 25761 ft | 399 kts | 252° |
| 2026-04-28 06:34 | 57.10217 | 63.57855 | 26095 ft | 401 kts | 252° |
| 2026-04-28 06:34 | 57.09605 | 63.52837 | 26421 ft | 403 kts | 252° |
| 2026-04-28 06:34 | 57.08996 | 63.47800 | 26747 ft | 405 kts | 252° |
| 2026-04-28 06:35 | 57.08387 | 63.42721 | 27050 ft | 407 kts | 252° |
| 2026-04-28 06:35 | 57.07779 | 63.37630 | 27350 ft | 409 kts | 252° |
| 2026-04-28 06:35 | 57.07170 | 63.32516 | 27655 ft | 410 kts | 252° |
| 2026-04-28 06:35 | 57.06558 | 63.27379 | 27938 ft | 412 kts | 252° |
| 2026-04-28 06:36 | 57.05942 | 63.22225 | 28220 ft | 414 kts | 252° |
| 2026-04-28 06:36 | 57.05322 | 63.17054 | 28503 ft | 416 kts | 252° |
| 2026-04-28 06:36 | 57.04697 | 63.11854 | 28804 ft | 417 kts | 252° |
| 2026-04-28 06:36 | 57.04069 | 63.06670 | 29281 ft | 414 kts | 251° |
| 2026-04-28 06:37 | 57.03448 | 63.01549 | 29854 ft | 409 kts | 251° |
| 2026-04-28 06:37 | 57.02849 | 62.96602 | 30271 ft | 406 kts | 251° |
| 2026-04-28 06:37 | 57.02232 | 62.91536 | 30473 ft | 408 kts | 251° |
| 2026-04-28 06:37 | 57.01606 | 62.86436 | 30655 ft | 410 kts | 251° |
| 2026-04-28 06:38 | 57.00984 | 62.81392 | 30929 ft | 410 kts | 251° |
| 2026-04-28 06:38 | 57.00356 | 62.76302 | 31221 ft | 409 kts | 251° |
| 2026-04-28 06:38 | 56.99726 | 62.71215 | 31458 ft | 409 kts | 251° |
| 2026-04-28 06:38 | 56.99092 | 62.66123 | 31675 ft | 410 kts | 251° |
| 2026-04-28 06:39 | 56.98455 | 62.61027 | 31921 ft | 410 kts | 251° |
| 2026-04-28 06:39 | 56.97809 | 62.55875 | 32185 ft | 409 kts | 251° |
| 2026-04-28 06:39 | 56.97179 | 62.50858 | 32446 ft | 409 kts | 250° |
| 2026-04-28 06:39 | 56.96539 | 62.45810 | 32874 ft | 404 kts | 250° |
| 2026-04-28 06:40 | 56.95908 | 62.40810 | 33194 ft | 402 kts | 250° |
| 2026-04-28 06:40 | 56.95272 | 62.35807 | 33313 ft | 405 kts | 250° |
| 2026-04-28 06:40 | 56.94630 | 62.30779 | 33452 ft | 406 kts | 250° |
| 2026-04-28 06:40 | 56.93985 | 62.25740 | 33704 ft | 405 kts | 250° |
| 2026-04-28 06:41 | 56.93344 | 62.20734 | 33952 ft | 404 kts | 250° |
| 2026-04-28 06:41 | 56.92700 | 62.15729 | 34121 ft | 404 kts | 250° |
| 2026-04-28 06:41 | 56.92052 | 62.10723 | 34247 ft | 405 kts | 250° |
| 2026-04-28 06:41 | 56.91400 | 62.05702 | 34393 ft | 405 kts | 250° |
| 2026-04-28 06:42 | 56.90746 | 62.00683 | 34554 ft | 405 kts | 250° |
| 2026-04-28 06:42 | 56.90109 | 61.95804 | 34685 ft | 405 kts | 250° |
| 2026-04-28 06:42 | 56.89450 | 61.90792 | 34875 ft | 405 kts | 249° |
| 2026-04-28 06:42 | 56.88794 | 61.85804 | 35136 ft | 402 kts | 250° |
| 2026-04-28 06:43 | 56.88140 | 61.80836 | 35251 ft | 403 kts | 250° |
| 2026-04-28 06:43 | 56.86815 | 61.70846 | 35442 ft | 405 kts | 250° |
| 2026-04-28 06:43 | 56.86150 | 61.65853 | 35599 ft | 404 kts | 250° |
| 2026-04-28 06:44 | 56.85482 | 61.60860 | 35713 ft | 405 kts | 250° |
| 2026-04-28 06:44 | 56.84137 | 61.50858 | 35905 ft | 406 kts | 250° |
| 2026-04-28 06:44 | 56.83472 | 61.45928 | 36032 ft | 405 kts | 250° |
| 2026-04-28 06:45 | 56.82821 | 61.41128 | 36116 ft | 406 kts | 250° |
| 2026-04-28 06:45 | 56.82125 | 61.36009 | 36252 ft | 407 kts | 249° |
| 2026-04-28 06:45 | 56.81443 | 61.31009 | 36431 ft | 405 kts | 250° |
| 2026-04-28 06:45 | 56.80763 | 61.26033 | 36561 ft | 404 kts | 250° |
| 2026-04-28 06:46 | 56.80078 | 61.21041 | 36602 ft | 406 kts | 250° |
| 2026-04-28 06:46 | 56.78700 | 61.11055 | 36797 ft | 407 kts | 249° |
| 2026-04-28 06:47 | 56.77312 | 61.01050 | 36947 ft | 408 kts | 250° |
| 2026-04-28 06:47 | 56.75924 | 60.91113 | 36971 ft | 411 kts | 250° |
| 2026-04-28 06:48 | 56.73970 | 60.81458 | 37062 ft | 403 kts | 236° |
| 2026-04-28 06:48 | 56.72489 | 60.77152 | 37265 ft | 399 kts | 231° |
| 2026-04-28 06:48 | 56.70753 | 60.73249 | 37336 ft | 395 kts | 223° |
| 2026-04-28 06:49 | 56.66796 | 60.66295 | 37403 ft | 396 kts | 221° |
| 2026-04-28 06:49 | 56.62835 | 60.59334 | 37525 ft | 396 kts | 222° |
| 2026-04-28 06:50 | 56.58898 | 60.52333 | 37624 ft | 397 kts | 223° |
| 2026-04-28 06:50 | 56.55025 | 60.45206 | 37756 ft | 397 kts | 223° |
| 2026-04-28 06:51 | 56.51129 | 60.38136 | 37950 ft | 394 kts | 222° |
| 2026-04-28 06:51 | 56.47182 | 60.31236 | 37999 ft | 394 kts | 222° |
| 2026-04-28 06:52 | 56.43259 | 60.24384 | 38008 ft | 395 kts | 222° |
| 2026-04-28 06:52 | 56.39305 | 60.17477 | 38009 ft | 395 kts | 222° |
| 2026-04-28 06:53 | 56.35326 | 60.10521 | 38003 ft | 396 kts | 222° |
| 2026-04-28 06:53 | 56.31364 | 60.03609 | 38008 ft | 397 kts | 222° |
| 2026-04-28 06:54 | 56.27441 | 59.96782 | 38009 ft | 398 kts | 221° |
| 2026-04-28 06:54 | 56.23486 | 59.89921 | 38012 ft | 398 kts | 221° |
| 2026-04-28 06:55 | 56.19495 | 59.83020 | 38013 ft | 398 kts | 221° |
| 2026-04-28 06:55 | 56.15504 | 59.76137 | 38006 ft | 398 kts | 221° |
| 2026-04-28 06:56 | 56.11507 | 59.69264 | 38019 ft | 398 kts | 221° |
| 2026-04-28 06:56 | 56.07507 | 59.62410 | 38013 ft | 397 kts | 222° |
| 2026-04-28 06:57 | 56.04013 | 59.54752 | 38022 ft | 401 kts | 235° |
| 2026-04-28 06:57 | 56.01397 | 59.45895 | 38015 ft | 403 kts | 238° |
| 2026-04-28 06:58 | 55.98823 | 59.37037 | 38013 ft | 402 kts | 238° |
| 2026-04-28 06:58 | 55.96227 | 59.28190 | 38023 ft | 402 kts | 238° |
| 2026-04-28 06:59 | 55.93620 | 59.19369 | 38016 ft | 402 kts | 238° |
| 2026-04-28 06:59 | 55.91004 | 59.10550 | 38019 ft | 402 kts | 237° |
| 2026-04-28 07:00 | 55.88398 | 59.01800 | 38019 ft | 402 kts | 237° |
| 2026-04-28 07:00 | 55.85805 | 58.93121 | 38023 ft | 402 kts | 237° |
| 2026-04-28 07:01 | 55.83175 | 58.84347 | 38025 ft | 402 kts | 237° |
| 2026-04-28 07:01 | 55.80540 | 58.75594 | 38013 ft | 401 kts | 237° |
| 2026-04-28 07:02 | 55.77897 | 58.66860 | 38028 ft | 401 kts | 237° |
| 2026-04-28 07:02 | 55.75247 | 58.58138 | 38016 ft | 402 kts | 237° |
| 2026-04-28 07:03 | 55.72588 | 58.49412 | 38022 ft | 402 kts | 237° |
| 2026-04-28 07:03 | 55.69922 | 58.40692 | 38017 ft | 402 kts | 237° |
| 2026-04-28 07:04 | 55.67246 | 58.31969 | 38008 ft | 403 kts | 237° |
| 2026-04-28 07:04 | 55.64563 | 58.23251 | 38008 ft | 404 kts | 237° |
| 2026-04-28 07:05 | 55.61864 | 58.14508 | 37998 ft | 405 kts | 237° |
| 2026-04-28 07:05 | 55.59610 | 58.07242 | 37988 ft | 405 kts | 237° |
| 2026-04-28 07:06 | 55.56926 | 57.98610 | 37988 ft | 406 kts | 237° |
| 2026-04-28 07:06 | 55.54193 | 57.89880 | 37995 ft | 406 kts | 237° |
| 2026-04-28 07:07 | 55.51442 | 57.81157 | 37992 ft | 406 kts | 237° |
| 2026-04-28 07:07 | 55.48688 | 57.72446 | 38021 ft | 407 kts | 237° |
| 2026-04-28 07:08 | 55.45929 | 57.63745 | 37998 ft | 406 kts | 237° |
| 2026-04-28 07:08 | 55.43186 | 57.55126 | 37995 ft | 405 kts | 237° |
| 2026-04-28 07:09 | 55.40427 | 57.46483 | 38004 ft | 404 kts | 237° |
| 2026-04-28 07:09 | 55.37666 | 57.37868 | 37998 ft | 404 kts | 236° |
| 2026-04-28 07:10 | 55.34905 | 57.29279 | 38027 ft | 403 kts | 236° |
| 2026-04-28 07:10 | 55.32139 | 57.20703 | 38015 ft | 403 kts | 236° |
| 2026-04-28 07:11 | 55.29372 | 57.12160 | 38007 ft | 403 kts | 236° |
| 2026-04-28 07:11 | 55.26606 | 57.03630 | 38002 ft | 402 kts | 236° |
| 2026-04-28 07:12 | 55.23874 | 56.95223 | 37998 ft | 402 kts | 236° |
| 2026-04-28 07:12 | 55.21101 | 56.86721 | 38008 ft | 401 kts | 236° |
| 2026-04-28 07:13 | 55.18323 | 56.78231 | 38009 ft | 402 kts | 236° |
| 2026-04-28 07:13 | 55.15537 | 56.69748 | 38006 ft | 402 kts | 236° |
| 2026-04-28 07:14 | 55.12767 | 56.61336 | 38009 ft | 402 kts | 236° |
| 2026-04-28 07:14 | 55.09973 | 56.52885 | 38008 ft | 402 kts | 236° |
| 2026-04-28 07:15 | 55.07170 | 56.44441 | 37999 ft | 402 kts | 236° |
| 2026-04-28 07:15 | 55.04363 | 56.36007 | 38012 ft | 403 kts | 236° |
| 2026-04-28 07:16 | 55.01545 | 56.27568 | 38006 ft | 403 kts | 236° |
| 2026-04-28 07:16 | 54.98726 | 56.19152 | 38010 ft | 403 kts | 236° |
| 2026-04-28 07:17 | 54.95895 | 56.10725 | 38009 ft | 403 kts | 236° |
| 2026-04-28 07:17 | 54.93051 | 56.02290 | 38006 ft | 404 kts | 236° |
| 2026-04-28 07:18 | 54.90236 | 55.93960 | 38044 ft | 404 kts | 236° |
| 2026-04-28 07:18 | 54.87378 | 55.85546 | 38016 ft | 404 kts | 236° |
| 2026-04-28 07:19 | 54.84515 | 55.77175 | 38007 ft | 403 kts | 236° |
| 2026-04-28 07:19 | 54.81673 | 55.68886 | 38004 ft | 402 kts | 236° |
| 2026-04-28 07:20 | 54.78814 | 55.60570 | 38002 ft | 401 kts | 236° |
| 2026-04-28 07:20 | 54.75953 | 55.52275 | 38009 ft | 401 kts | 236° |
| 2026-04-28 07:21 | 54.73090 | 55.44002 | 37999 ft | 400 kts | 236° |
| 2026-04-28 07:21 | 54.70228 | 55.35755 | 38000 ft | 400 kts | 236° |
| 2026-04-28 07:22 | 54.65929 | 55.23421 | 37990 ft | 399 kts | 236° |
| 2026-04-28 07:22 | 54.63062 | 55.15233 | 37984 ft | 398 kts | 235° |
| 2026-04-28 07:23 | 54.60195 | 55.07066 | 37993 ft | 398 kts | 236° |
| 2026-04-28 07:23 | 54.57367 | 54.99027 | 37992 ft | 397 kts | 236° |
| 2026-04-28 07:24 | 54.54492 | 54.90892 | 37984 ft | 397 kts | 235° |
| 2026-04-28 07:24 | 54.51613 | 54.82774 | 37982 ft | 397 kts | 235° |
| 2026-04-28 07:25 | 54.48748 | 54.74714 | 37989 ft | 397 kts | 235° |
| 2026-04-28 07:25 | 54.45858 | 54.66608 | 37987 ft | 398 kts | 235° |
| 2026-04-28 07:26 | 54.42961 | 54.58505 | 37987 ft | 398 kts | 235° |
| 2026-04-28 07:26 | 54.40060 | 54.50413 | 37984 ft | 398 kts | 235° |
| 2026-04-28 07:27 | 54.37151 | 54.42333 | 37978 ft | 398 kts | 235° |
| 2026-04-28 07:27 | 54.34231 | 54.34264 | 37976 ft | 398 kts | 235° |
| 2026-04-28 07:28 | 54.31310 | 54.26214 | 37978 ft | 398 kts | 235° |
| 2026-04-28 07:28 | 54.28385 | 54.18171 | 37976 ft | 398 kts | 235° |
| 2026-04-28 07:29 | 54.25451 | 54.10129 | 37971 ft | 399 kts | 234° |
| 2026-04-28 07:29 | 54.22528 | 54.02142 | 37971 ft | 398 kts | 234° |
| 2026-04-28 07:30 | 54.19633 | 53.94255 | 37965 ft | 397 kts | 234° |
| 2026-04-28 07:30 | 54.16694 | 53.86274 | 37980 ft | 397 kts | 234° |
| 2026-04-28 07:31 | 54.13744 | 53.78292 | 37987 ft | 398 kts | 235° |
| 2026-04-28 07:31 | 54.10783 | 53.70298 | 37972 ft | 399 kts | 235° |
| 2026-04-28 07:32 | 54.07808 | 53.62296 | 37979 ft | 400 kts | 235° |
| 2026-04-28 07:32 | 54.04822 | 53.54305 | 37966 ft | 400 kts | 234° |
| 2026-04-28 07:33 | 54.01831 | 53.46327 | 37957 ft | 400 kts | 234° |
| 2026-04-28 07:33 | 53.98864 | 53.38431 | 37990 ft | 399 kts | 234° |
| 2026-04-28 07:34 | 53.95867 | 53.30480 | 37964 ft | 399 kts | 234° |
| 2026-04-28 07:34 | 53.94364 | 53.26501 | 37763 ft | 403 kts | 234° |
| 2026-04-28 07:34 | 53.92837 | 53.22466 | 37268 ft | 403 kts | 234° |
| 2026-04-28 07:35 | 53.91336 | 53.18501 | 36732 ft | 398 kts | 234° |
| 2026-04-28 07:35 | 53.89838 | 53.14552 | 36055 ft | 397 kts | 234° |
| 2026-04-28 07:35 | 53.88348 | 53.10628 | 35473 ft | 395 kts | 234° |
| 2026-04-28 07:35 | 53.86856 | 53.06709 | 34843 ft | 394 kts | 234° |
| 2026-04-28 07:36 | 53.85375 | 53.02826 | 34195 ft | 393 kts | 233° |
| 2026-04-28 07:36 | 53.84045 | 52.98901 | 33466 ft | 396 kts | 240° |
| 2026-04-28 07:36 | 53.82990 | 52.94624 | 33099 ft | 391 kts | 244° |
| 2026-04-28 07:36 | 53.82182 | 52.90270 | 32823 ft | 385 kts | 250° |
| 2026-04-28 07:37 | 53.81672 | 52.85824 | 32188 ft | 386 kts | 252° |
| 2026-04-28 07:37 | 53.81214 | 52.81343 | 31601 ft | 385 kts | 252° |
| 2026-04-28 07:37 | 53.80764 | 52.76861 | 30846 ft | 387 kts | 251° |
| 2026-04-28 07:37 | 53.80312 | 52.72371 | 30431 ft | 390 kts | 251° |
| 2026-04-28 07:38 | 53.79855 | 52.67875 | 29829 ft | 385 kts | 251° |
| 2026-04-28 07:38 | 53.79407 | 52.63492 | 29307 ft | 379 kts | 250° |
| 2026-04-28 07:38 | 53.78958 | 52.59137 | 28798 ft | 373 kts | 250° |
| 2026-04-28 07:38 | 53.78512 | 52.54850 | 28295 ft | 367 kts | 250° |
| 2026-04-28 07:39 | 53.78070 | 52.50634 | 27787 ft | 361 kts | 250° |
| 2026-04-28 07:39 | 53.77632 | 52.46487 | 27322 ft | 356 kts | 250° |
| 2026-04-28 07:39 | 53.77198 | 52.42400 | 26895 ft | 350 kts | 250° |
| 2026-04-28 07:39 | 53.76770 | 52.38392 | 26451 ft | 345 kts | 250° |
| 2026-04-28 07:40 | 53.76346 | 52.34433 | 26041 ft | 340 kts | 250° |
| 2026-04-28 07:40 | 53.75923 | 52.30503 | 25640 ft | 337 kts | 250° |
| 2026-04-28 07:40 | 53.75504 | 52.26625 | 25097 ft | 336 kts | 251° |
| 2026-04-28 07:40 | 53.75083 | 52.22750 | 24653 ft | 334 kts | 251° |
| 2026-04-28 07:41 | 53.74665 | 52.18902 | 24163 ft | 332 kts | 251° |
| 2026-04-28 07:41 | 53.74249 | 52.15080 | 23724 ft | 330 kts | 251° |
| 2026-04-28 07:41 | 53.73833 | 52.11271 | 23211 ft | 328 kts | 251° |
| 2026-04-28 07:41 | 53.73425 | 52.07543 | 22731 ft | 325 kts | 251° |
| 2026-04-28 07:42 | 53.73016 | 52.03812 | 22270 ft | 322 kts | 251° |
| 2026-04-28 07:42 | 53.72608 | 52.00109 | 21838 ft | 320 kts | 252° |
| 2026-04-28 07:42 | 53.72212 | 51.96516 | 21401 ft | 319 kts | 252° |
| 2026-04-28 07:42 | 53.71800 | 51.92817 | 20969 ft | 325 kts | 252° |
| 2026-04-28 07:43 | 53.71368 | 51.88979 | 20501 ft | 338 kts | 253° |
| 2026-04-28 07:43 | 53.70926 | 51.85050 | 20014 ft | 340 kts | 255° |
| 2026-04-28 07:43 | 53.70489 | 51.81130 | 19525 ft | 339 kts | 255° |
| 2026-04-28 07:43 | 53.70057 | 51.77231 | 19071 ft | 336 kts | 255° |
| 2026-04-28 07:44 | 53.69625 | 51.73361 | 18589 ft | 335 kts | 256° |
| 2026-04-28 07:44 | 53.69193 | 51.69510 | 18113 ft | 333 kts | 256° |
| 2026-04-28 07:44 | 53.68760 | 51.65674 | 17528 ft | 333 kts | 256° |
| 2026-04-28 07:44 | 53.68324 | 51.61815 | 16882 ft | 335 kts | 256° |
| 2026-04-28 07:45 | 53.67886 | 51.57956 | 16317 ft | 334 kts | 256° |
| 2026-04-28 07:45 | 53.67449 | 51.54128 | 15866 ft | 331 kts | 256° |
| 2026-04-28 07:45 | 53.67031 | 51.50317 | 15411 ft | 329 kts | 258° |
| 2026-04-28 07:45 | 53.66719 | 51.46496 | 14927 ft | 329 kts | 259° |
| 2026-04-28 07:46 | 53.66459 | 51.42730 | 14447 ft | 324 kts | 260° |
| 2026-04-28 07:46 | 53.66212 | 51.38995 | 13915 ft | 317 kts | 260° |
| 2026-04-28 07:46 | 53.65971 | 51.35368 | 13519 ft | 306 kts | 260° |
| 2026-04-28 07:46 | 53.65735 | 51.31888 | 13262 ft | 292 kts | 260° |
| 2026-04-28 07:47 | 53.65507 | 51.28570 | 13068 ft | 278 kts | 259° |
| 2026-04-28 07:47 | 53.65284 | 51.25389 | 12739 ft | 268 kts | 259° |
| 2026-04-28 07:47 | 53.65067 | 51.22326 | 12409 ft | 259 kts | 259° |
| 2026-04-28 07:47 | 53.64854 | 51.19362 | 12080 ft | 251 kts | 259° |
| 2026-04-28 07:48 | 53.64645 | 51.16467 | 11648 ft | 248 kts | 258° |
| 2026-04-28 07:48 | 53.64437 | 51.13618 | 11262 ft | 243 kts | 259° |
| 2026-04-28 07:48 | 53.64231 | 51.10800 | 10772 ft | 242 kts | 259° |
| 2026-04-28 07:48 | 53.64026 | 51.07997 | 10302 ft | 240 kts | 259° |
| 2026-04-28 07:49 | 53.63822 | 51.05225 | 9861 ft | 237 kts | 259° |
| 2026-04-28 07:49 | 53.63620 | 51.02478 | 9354 ft | 236 kts | 259° |
| 2026-04-28 07:49 | 53.63422 | 50.99798 | 8817 ft | 237 kts | 259° |
| 2026-04-28 07:49 | 53.63217 | 50.97047 | 8305 ft | 236 kts | 259° |
| 2026-04-28 07:50 | 53.63013 | 50.94303 | 7808 ft | 236 kts | 258° |
| 2026-04-28 07:50 | 53.62810 | 50.91570 | 7380 ft | 233 kts | 258° |
| 2026-04-28 07:50 | 53.62610 | 50.88902 | 7091 ft | 232 kts | 258° |
| 2026-04-28 07:50 | 53.62410 | 50.86221 | 6817 ft | 229 kts | 258° |
| 2026-04-28 07:51 | 53.62211 | 50.83575 | 6544 ft | 227 kts | 257° |
| 2026-04-28 07:51 | 53.62014 | 50.80960 | 6296 ft | 223 kts | 258° |
| 2026-04-28 07:51 | 53.61819 | 50.78385 | 6045 ft | 219 kts | 257° |
| 2026-04-28 07:51 | 53.61627 | 50.75854 | 5830 ft | 225 kts | 257° |
| 2026-04-28 07:52 | 53.61409 | 50.73081 | 5600 ft | 245 kts | 258° |
| 2026-04-28 07:52 | 53.61192 | 50.70235 | 5327 ft | 246 kts | 258° |
| 2026-04-28 07:52 | 53.60975 | 50.67401 | 5105 ft | 242 kts | 258° |
| 2026-04-28 07:52 | 53.60762 | 50.64605 | 4820 ft | 240 kts | 258° |
| 2026-04-28 07:53 | 53.60549 | 50.61828 | 4544 ft | 237 kts | 257° |
| 2026-04-28 07:53 | 53.60340 | 50.59102 | 4291 ft | 233 kts | 257° |
| 2026-04-28 07:53 | 53.60133 | 50.56418 | 4033 ft | 230 kts | 257° |
| 2026-04-28 07:53 | 53.59930 | 50.53784 | 3888 ft | 222 kts | 257° |
| 2026-04-28 07:54 | 53.59735 | 50.51260 | 3765 ft | 213 kts | 257° |
| 2026-04-28 07:54 | 53.59548 | 50.48855 | 3700 ft | 200 kts | 256° |
| 2026-04-28 07:54 | 53.59374 | 50.46621 | 3606 ft | 185 kts | 256° |
| 2026-04-28 07:54 | 53.59267 | 50.45237 | 3550 ft | 175 kts | 256° |
| 2026-04-28 07:55 | 53.59065 | 50.42678 | 3385 ft | 156 kts | 253° |
| 2026-04-28 07:55 | 53.58858 | 50.41572 | 3303 ft | 147 kts | 239° |
| 2026-04-28 07:55 | 53.58422 | 50.39994 | 3216 ft | 147 kts | 241° |
| 2026-04-28 07:55 | 53.57838 | 50.37960 | 3052 ft | 142 kts | 238° |
| 2026-04-28 07:56 | 53.57402 | 50.36574 | 2905 ft | 125 kts | 237° |
| 2026-04-28 07:56 | 53.56989 | 50.35302 | 2739 ft | 122 kts | 237° |
| 2026-04-28 07:56 | 53.56595 | 50.34096 | 2584 ft | 114 kts | 236° |
| 2026-04-28 07:56 | 53.56337 | 50.33310 | 2495 ft | 114 kts | 236° |
| 2026-04-28 07:57 | 53.55952 | 50.32138 | 2351 ft | 115 kts | 236° |
| 2026-04-28 07:57 | 53.55575 | 50.30991 | 2210 ft | 114 kts | 236° |
| 2026-04-28 07:57 | 53.55189 | 50.29818 | 2064 ft | 115 kts | 236° |
| 2026-04-28 07:57 | 53.54802 | 50.28646 | 1910 ft | 115 kts | 236° |
| 2026-04-28 07:58 | 53.54413 | 50.27484 | 1757 ft | 115 kts | 236° |
| 2026-04-28 07:58 | 53.54053 | 50.26310 | 1649 ft | 111 kts | 237° |
| 2026-04-28 07:58 | 53.53677 | 50.25202 | 1511 ft | 110 kts | 233° |
| 2026-04-28 07:58 | 53.53274 | 50.24050 | 1438 ft | 117 kts | 236° |
| 2026-04-28 07:59 | 53.52877 | 50.22832 | 1315 ft | 120 kts | 237° |
| 2026-04-28 07:59 | 53.52469 | 50.21559 | 1124 ft | 128 kts | 239° |
| 2026-04-28 07:59 | 53.52036 | 50.20246 | 995 ft | 128 kts | 239° |
| 2026-04-28 07:59 | 53.51601 | 50.18924 | 776 ft | 130 kts | 239° |
| 2026-04-28 08:00 | 53.51169 | 50.17582 | 585 ft | 132 kts | 239° |
| 2026-04-28 08:00 | 53.50724 | 50.16216 | 449 ft | 130 kts | 240° |
| 2026-04-28 08:00 | 53.50353 | 50.15066 | 450 ft | 91 kts | 241° |
| 2026-04-28 08:00 | 53.50196 | 50.14587 | 451 ft | 21 kts | 240° |
| 2026-04-28 08:01 | 53.50190 | 50.14571 | 451 ft | 0 kts | 239° |
| 2026-04-28 08:01 | 53.50181 | 50.14544 | 451 ft | 7 kts | 239° |
| 2026-04-28 08:01 | 53.50137 | 50.14414 | 451 ft | 18 kts | 241° |
| 2026-04-28 08:01 | 53.50063 | 50.14184 | 453 ft | 27 kts | 242° |
| 2026-04-28 08:02 | 53.49964 | 50.13881 | 452 ft | 31 kts | 240° |
| 2026-04-28 08:02 | 53.49886 | 50.13634 | 452 ft | 18 kts | 242° |
| 2026-04-28 08:02 | 53.49871 | 50.13533 | 452 ft | 9 kts | 282° |
| 2026-04-28 08:02 | 53.49928 | 50.13478 | 448 ft | 14 kts | 358° |
| 2026-04-28 08:03 | 53.50035 | 50.13481 | 443 ft | 17 kts | 1° |
| 2026-04-28 08:03 | 53.50156 | 50.13487 | 442 ft | 18 kts | 1° |
| 2026-04-28 08:03 | 53.50279 | 50.13499 | 439 ft | 10 kts | 18° |
| 2026-04-28 08:03 | 53.50328 | 50.13600 | 442 ft | 12 kts | 62° |
| 2026-04-28 08:04 | 53.50373 | 50.13736 | 439 ft | 14 kts | 61° |
| 2026-04-28 08:04 | 53.50383 | 50.13767 | 439 ft | 0 kts | 60° |
| 2026-04-28 08:04 | 53.50385 | 50.13771 | 433 ft | 1 kts | 60° |